Time,TemperatureF,DewpointF,PressureIn,WindDirection,WindDirectionDegrees,WindSpeedMPH,WindSpeedGustMPH,Humidity,HourlyPrecipIn,Conditions,Clouds,dailyrainin,SoftwareType,DateUTC
2013-02-28 00:00:00,64.6,-99.9,29.94,WSW,247,1.0,6.0,-999,0.00,,,-99.99,WeatherLink 5.5,2013-02-28 05:00:00,
2013-02-28 00:10:00,64.6,64.6,29.93,WSW,247,1.0,6.0,100,0.00,,,-99.99,WeatherLink 5.5,2013-02-28 05:10:00,
2013-02-28 00:15:00,64.5,63.3,29.92,WSW,247,1.0,5.0,96,0.00,,,-99.99,WeatherLink 5.5,2013-02-28 05:15:00,
2013-02-28 00:20:00,64.5,63.3,29.92,WSW,247,1.0,5.0,96,0.00,,,-99.99,WeatherLink 5.5,2013-02-28 05:20:00,
2013-02-28 00:25:00,64.5,62.7,29.92,WSW,247,1.0,6.0,94,0.00,,,-99.99,WeatherLink 5.5,2013-02-28 05:25:00,
2013-02-28 00:35:00,64.4,61.7,29.92,WSW,247,2.0,6.0,91,0.00,,,-99.99,WeatherLink 5.5,2013-02-28 05:35:00,
2013-02-28 00:45:00,64.4,60.1,29.91,WSW,247,1.0,6.0,86,0.00,,,-99.99,WeatherLink 5.5,2013-02-28 05:45:00,
2013-02-28 00:55:00,64.4,58.8,29.92,WSW,247,2.0,8.0,82,0.00,,,-99.99,WeatherLink 5.5,2013-02-28 05:55:00,
2013-02-28 01:05:00,64.3,58.0,29.91,WSW,247,3.0,10.0,80,0.00,,,-99.99,WeatherLink 5.5,2013-02-28 06:05:00,
2013-02-28 01:15:00,64.3,56.9,29.92,WSW,247,2.0,7.0,77,0.00,,,-99.99,WeatherLink 5.5,2013-02-28 06:15:00,
2013-02-28 01:20:00,64.3,56.2,29.91,WSW,247,1.0,6.0,75,0.00,,,-99.99,WeatherLink 5.5,2013-02-28 06:20:00,
2013-02-28 01:30:00,64.4,55.2,29.91,WSW,247,1.0,5.0,72,0.00,,,-99.99,WeatherLink 5.5,2013-02-28 06:30:00,
2013-02-28 01:40:00,64.4,54.8,29.90,WSW,247,1.0,5.0,71,0.00,,,-99.99,WeatherLink 5.5,2013-02-28 06:40:00,
2013-02-28 01:50:00,64.4,53.6,29.89,WSW,247,1.0,5.0,68,0.00,,,-99.99,WeatherLink 5.5,2013-02-28 06:50:00,
2013-02-28 02:00:00,64.4,53.6,29.90,WSW,247,1.0,5.0,68,0.00,,,-99.99,WeatherLink 5.5,2013-02-28 07:00:00,
2013-02-28 02:05:00,64.3,53.5,29.90,WSW,247,3.0,9.0,68,0.00,,,-99.99,WeatherLink 5.5,2013-02-28 07:05:00,
2013-02-28 02:15:00,64.1,52.9,29.89,WSW,247,1.0,6.0,67,0.00,,,-99.99,WeatherLink 5.5,2013-02-28 07:15:00,
2013-02-28 02:25:00,63.9,52.3,29.89,WSW,247,2.0,7.0,66,0.00,,,-99.99,WeatherLink 5.5,2013-02-28 07:25:00,
2013-02-28 02:30:00,63.7,52.1,29.89,WSW,247,1.0,5.0,66,0.00,,,-99.99,WeatherLink 5.5,2013-02-28 07:30:00,
2013-02-28 02:40:00,63.5,51.9,29.89,WSW,247,1.0,6.0,66,0.00,,,-99.99,WeatherLink 5.5,2013-02-28 07:40:00,
2013-02-28 02:50:00,63.3,51.3,29.89,WNW,292,4.0,10.0,65,0.00,,,-99.99,WeatherLink 5.5,2013-02-28 07:50:00,
2013-02-28 02:55:00,63.2,51.2,29.89,WNW,292,2.0,7.0,65,0.00,,,-99.99,WeatherLink 5.5,2013-02-28 07:55:00,
2013-02-28 03:05:00,63.1,50.7,29.89,WNW,292,3.0,10.0,64,0.00,,,-99.99,WeatherLink 5.5,2013-02-28 08:05:00,
2013-02-28 03:10:00,63.0,50.6,29.89,West,270,2.0,8.0,64,0.00,,,-99.99,WeatherLink 5.5,2013-02-28 08:10:00,
2013-02-28 03:20:00,62.9,50.5,29.90,West,270,2.0,5.0,64,0.00,,,-99.99,WeatherLink 5.5,2013-02-28 08:20:00,
2013-02-28 03:30:00,62.6,50.2,29.90,West,270,2.0,8.0,64,0.00,,,-99.99,WeatherLink 5.5,2013-02-28 08:30:00,
2013-02-28 03:40:00,62.3,50.0,29.89,West,270,4.0,9.0,64,0.00,,,-99.99,WeatherLink 5.5,2013-02-28 08:40:00,
2013-02-28 03:50:00,62.0,50.1,29.90,WNW,292,4.0,11.0,65,0.00,,,-99.99,WeatherLink 5.5,2013-02-28 08:50:00,
2013-02-28 04:00:00,61.6,49.7,29.90,WNW,292,1.0,8.0,65,0.00,,,-99.99,WeatherLink 5.5,2013-02-28 09:00:00,
2013-02-28 04:10:00,61.1,50.5,29.90,WNW,292,2.0,8.0,68,0.00,,,-99.99,WeatherLink 5.5,2013-02-28 09:10:00,
2013-02-28 04:20:00,60.8,51.0,29.90,WNW,292,5.0,13.0,70,0.00,,,-99.99,WeatherLink 5.5,2013-02-28 09:20:00,
2013-02-28 04:25:00,60.8,51.7,29.91,WNW,292,3.0,10.0,72,0.00,,,-99.99,WeatherLink 5.5,2013-02-28 09:25:00,
2013-02-28 04:35:00,60.4,53.2,29.91,NW,315,3.0,11.0,77,0.00,,,-99.99,WeatherLink 5.5,2013-02-28 09:35:00,
2013-02-28 04:45:00,60.1,54.9,29.91,WNW,292,4.0,10.0,83,0.00,,,-99.99,WeatherLink 5.5,2013-02-28 09:45:00,
2013-02-28 04:50:00,60.0,54.8,29.92,WNW,292,4.0,13.0,83,0.00,,,-99.99,WeatherLink 5.5,2013-02-28 09:50:00,
2013-02-28 05:00:00,59.8,56.6,29.91,NW,315,3.0,9.0,89,0.00,,,-99.99,WeatherLink 5.5,2013-02-28 10:00:00,
2013-02-28 05:10:00,59.6,59.0,29.93,WNW,292,2.0,5.0,98,0.00,,,-99.99,WeatherLink 5.5,2013-02-28 10:10:00,
2013-02-28 05:20:00,59.3,59.3,29.92,NW,315,4.0,9.0,100,0.00,,,-99.99,WeatherLink 5.5,2013-02-28 10:20:00,
2013-02-28 05:30:00,59.0,59.0,29.92,WNW,292,3.0,9.0,100,0.00,,,-99.99,WeatherLink 5.5,2013-02-28 10:30:00,
2013-02-28 05:35:00,58.9,58.9,29.92,WNW,292,3.0,8.0,100,0.00,,,-99.99,WeatherLink 5.5,2013-02-28 10:35:00,
2013-02-28 05:45:00,58.7,58.7,29.92,WNW,292,4.0,8.0,100,0.00,,,-99.99,WeatherLink 5.5,2013-02-28 10:45:00,
2013-02-28 05:55:00,58.7,58.7,29.92,WNW,292,3.0,7.0,100,0.00,,,-99.99,WeatherLink 5.5,2013-02-28 10:55:00,
2013-02-28 06:00:00,58.7,58.7,29.92,WNW,292,4.0,10.0,100,0.00,,,-99.99,WeatherLink 5.5,2013-02-28 11:00:00,
2013-02-28 06:10:00,58.6,58.6,29.92,WNW,292,2.0,6.0,100,0.00,,,-99.99,WeatherLink 5.5,2013-02-28 11:10:00,
2013-02-28 06:15:00,58.6,58.6,29.93,WNW,292,2.0,6.0,100,0.00,,,-99.99,WeatherLink 5.5,2013-02-28 11:15:00,
2013-02-28 06:25:00,58.5,58.5,29.93,NW,315,2.0,6.0,100,0.00,,,-99.99,WeatherLink 5.5,2013-02-28 11:25:00,
2013-02-28 06:35:00,58.5,58.5,29.93,WNW,292,2.0,6.0,100,0.00,,,-99.99,WeatherLink 5.5,2013-02-28 11:35:00,
2013-02-28 06:40:00,58.5,58.5,29.94,WNW,292,2.0,6.0,100,0.00,,,-99.99,WeatherLink 5.5,2013-02-28 11:40:00,
2013-02-28 06:50:00,58.5,58.5,29.94,WNW,292,3.0,9.0,100,0.00,,,-99.99,WeatherLink 5.5,2013-02-28 11:50:00,
2013-02-28 06:55:00,58.5,58.5,29.93,WNW,292,3.0,9.0,100,0.00,,,-99.99,WeatherLink 5.5,2013-02-28 11:55:00,
2013-02-28 07:05:00,58.5,58.5,29.94,WNW,292,3.0,7.0,100,0.00,,,-99.99,WeatherLink 5.5,2013-02-28 12:05:00,
2013-02-28 07:10:00,58.5,58.5,29.94,WNW,292,2.0,8.0,100,0.00,,,-99.99,WeatherLink 5.5,2013-02-28 12:10:00,
2013-02-28 07:20:00,58.5,58.5,29.95,NW,315,2.0,9.0,100,0.00,,,-99.99,WeatherLink 5.5,2013-02-28 12:20:00,
2013-02-28 07:30:00,58.7,58.7,29.95,NW,315,2.0,7.0,100,0.00,,,-99.99,WeatherLink 5.5,2013-02-28 12:30:00,
2013-02-28 07:40:00,58.7,58.7,29.95,NW,315,4.0,11.0,100,0.00,,,-99.99,WeatherLink 5.5,2013-02-28 12:40:00,
2013-02-28 07:45:00,58.8,58.8,29.96,NW,315,4.0,11.0,100,0.00,,,-99.99,WeatherLink 5.5,2013-02-28 12:45:00,
2013-02-28 07:55:00,58.9,58.9,29.96,NW,315,3.0,8.0,100,0.00,,,-99.99,WeatherLink 5.5,2013-02-28 12:55:00,
2013-02-28 08:05:00,59.0,59.0,29.96,NW,315,2.0,6.0,100,0.00,,,-99.99,WeatherLink 5.5,2013-02-28 13:05:00,
2013-02-28 08:10:00,59.1,59.1,29.96,NW,315,5.0,11.0,100,0.00,,,-99.99,WeatherLink 5.5,2013-02-28 13:10:00,
2013-02-28 08:20:00,59.3,59.3,29.97,NW,315,3.0,7.0,100,0.00,,,-99.99,WeatherLink 5.5,2013-02-28 13:20:00,
2013-02-28 08:30:00,59.6,59.6,29.97,NW,315,3.0,8.0,100,0.00,,,-99.99,WeatherLink 5.5,2013-02-28 13:30:00,
2013-02-28 08:35:00,59.7,59.7,29.97,WNW,292,5.0,11.0,100,0.00,,,-99.99,WeatherLink 5.5,2013-02-28 13:35:00,
2013-02-28 08:45:00,60.0,60.0,29.97,NW,315,3.0,11.0,100,0.00,,,-99.99,WeatherLink 5.5,2013-02-28 13:45:00,
2013-02-28 08:50:00,60.2,60.2,29.97,NW,315,2.0,12.0,100,0.00,,,-99.99,WeatherLink 5.5,2013-02-28 13:50:00,
2013-02-28 09:00:00,60.8,60.8,29.97,NW,315,3.0,8.0,100,0.00,,,-99.99,WeatherLink 5.5,2013-02-28 14:00:00,
2013-02-28 09:10:00,60.7,60.7,29.98,NW,315,6.0,11.0,100,0.00,,,-99.99,WeatherLink 5.5,2013-02-28 14:10:00,
2013-02-28 09:15:00,60.8,60.8,29.98,NW,315,4.0,11.0,100,0.00,,,-99.99,WeatherLink 5.5,2013-02-28 14:15:00,
2013-02-28 09:25:00,61.4,61.4,29.98,NW,315,5.0,13.0,100,0.00,,,-99.99,WeatherLink 5.5,2013-02-28 14:25:00,
2013-02-28 09:30:00,61.8,61.8,29.98,NW,315,6.0,13.0,100,0.00,,,-99.99,WeatherLink 5.5,2013-02-28 14:30:00,
2013-02-28 09:40:00,62.7,62.7,29.97,NW,315,3.0,9.0,100,0.00,,,-99.99,WeatherLink 5.5,2013-02-28 14:40:00,
2013-02-28 09:50:00,63.1,63.1,29.98,NW,315,3.0,8.0,100,0.00,,,-99.99,WeatherLink 5.5,2013-02-28 14:50:00,
2013-02-28 10:00:00,63.2,63.2,29.98,NW,315,3.0,9.0,100,0.00,,,-99.99,WeatherLink 5.5,2013-02-28 15:00:00,
2013-02-28 10:10:00,63.3,63.3,29.98,NW,315,1.0,8.0,100,0.00,,,-99.99,WeatherLink 5.5,2013-02-28 15:10:00,
2013-02-28 10:20:00,63.5,63.5,29.98,WNW,292,5.0,10.0,100,0.00,,,-99.99,WeatherLink 5.5,2013-02-28 15:20:00,
2013-02-28 10:30:00,64.0,-99.9,29.98,NW,315,3.0,12.0,-999,0.00,,,-99.99,WeatherLink 5.5,2013-02-28 15:30:00,
2013-02-28 10:35:00,64.5,-99.9,29.98,NW,315,4.0,8.0,-999,0.00,,,-99.99,WeatherLink 5.5,2013-02-28 15:35:00,
2013-02-28 10:45:00,64.9,-99.9,29.98,NNW,337,4.0,10.0,0,0.00,,,-99.99,WeatherLink 5.5,2013-02-28 15:45:00,
2013-02-28 10:55:00,65.1,-99.9,29.98,NNW,337,3.0,10.0,-999,0.00,,,-99.99,WeatherLink 5.5,2013-02-28 15:55:00,
2013-02-28 11:05:00,65.4,-99.9,29.98,NNW,337,3.0,12.0,0,0.00,,,-99.99,WeatherLink 5.5,2013-02-28 16:05:00,
2013-02-28 11:15:00,65.7,-99.9,29.98,NW,315,4.0,8.0,0,0.00,,,-99.99,WeatherLink 5.5,2013-02-28 16:15:00,
2013-02-28 11:20:00,65.7,-99.9,29.98,NW,315,2.0,8.0,0,0.00,,,-99.99,WeatherLink 5.5,2013-02-28 16:20:00,
2013-02-28 11:30:00,66.1,-99.9,29.98,WNW,292,1.0,7.0,0,0.00,,,-99.99,WeatherLink 5.5,2013-02-28 16:30:00,
2013-02-28 11:40:00,66.7,-99.9,29.98,WNW,292,3.0,7.0,0,0.00,,,-99.99,WeatherLink 5.5,2013-02-28 16:40:00,
2013-02-28 11:50:00,66.7,66.7,29.97,NW,315,2.0,5.0,100,0.00,,,-99.99,WeatherLink 5.5,2013-02-28 16:50:00,
2013-02-28 12:00:00,67.4,67.4,29.97,NW,315,2.0,7.0,100,0.00,,,-99.99,WeatherLink 5.5,2013-02-28 17:00:00,
2013-02-28 12:10:00,67.0,67.0,29.97,NW,315,1.0,6.0,100,0.00,,,-99.99,WeatherLink 5.5,2013-02-28 17:10:00,
2013-02-28 12:20:00,66.5,66.5,29.97,NW,315,3.0,10.0,100,0.00,,,-99.99,WeatherLink 5.5,2013-02-28 17:20:00,
2013-02-28 12:30:00,65.8,65.8,29.97,WNW,292,3.0,7.0,100,0.00,,,-99.99,WeatherLink 5.5,2013-02-28 17:30:00,
2013-02-28 12:40:00,65.2,65.2,29.96,West,270,4.0,7.0,100,0.00,,,-99.99,WeatherLink 5.5,2013-02-28 17:40:00,
2013-02-28 12:45:00,64.9,64.9,29.96,West,270,3.0,7.0,100,0.00,,,-99.99,WeatherLink 5.5,2013-02-28 17:45:00,
2013-02-28 12:55:00,64.4,64.4,29.95,NW,315,1.0,4.0,100,0.00,,,-99.99,WeatherLink 5.5,2013-02-28 17:55:00,
2013-02-28 13:05:00,64.6,64.6,29.94,WNW,292,1.0,5.0,100,0.00,,,-99.99,WeatherLink 5.5,2013-02-28 18:05:00,
2013-02-28 13:10:00,64.5,64.5,29.94,WNW,292,0.0,3.0,100,0.00,,,-99.99,WeatherLink 5.5,2013-02-28 18:10:00,
2013-02-28 13:20:00,64.3,64.3,29.94,WNW,292,1.0,5.0,100,0.00,,,-99.99,WeatherLink 5.5,2013-02-28 18:20:00,
2013-02-28 13:25:00,64.3,64.3,29.94,WNW,292,3.0,7.0,100,0.00,,,-99.99,WeatherLink 5.5,2013-02-28 18:25:00,
2013-02-28 13:35:00,64.5,64.5,29.93,WNW,292,1.0,4.0,100,0.00,,,-99.99,WeatherLink 5.5,2013-02-28 18:35:00,
2013-02-28 13:40:00,64.8,64.8,29.92,WNW,292,1.0,4.0,100,0.00,,,-99.99,WeatherLink 5.5,2013-02-28 18:40:00,
2013-02-28 13:45:00,65.0,65.0,29.92,WNW,292,1.0,5.0,100,0.00,,,-99.99,WeatherLink 5.5,2013-02-28 18:45:00,
2013-02-28 13:50:00,65.0,65.0,29.92,WNW,292,1.0,5.0,100,0.00,,,-99.99,WeatherLink 5.5,2013-02-28 18:50:00,
2013-02-28 14:00:00,64.9,64.9,29.92,NW,315,0.0,4.0,100,0.00,,,-99.99,WeatherLink 5.5,2013-02-28 19:00:00,
2013-02-28 14:10:00,65.7,65.7,29.91,WNW,292,2.0,6.0,100,0.00,,,-99.99,WeatherLink 5.5,2013-02-28 19:10:00,
2013-02-28 14:20:00,66.5,66.5,29.91,WNW,292,1.0,5.0,100,0.00,,,-99.99,WeatherLink 5.5,2013-02-28 19:20:00,
2013-02-28 14:30:00,66.9,66.9,29.91,WNW,292,1.0,4.0,100,0.00,,,-99.99,WeatherLink 5.5,2013-02-28 19:30:00,
2013-02-28 14:40:00,67.3,67.3,29.92,WNW,292,0.0,4.0,100,0.00,,,-99.99,WeatherLink 5.5,2013-02-28 19:40:00,
2013-02-28 14:45:00,67.2,67.2,29.91,WNW,292,1.0,4.0,100,0.00,,,-99.99,WeatherLink 5.5,2013-02-28 19:45:00,
2013-02-28 14:55:00,66.8,66.8,29.90,WNW,292,1.0,5.0,100,0.00,,,-99.99,WeatherLink 5.5,2013-02-28 19:55:00,
2013-02-28 15:00:00,66.5,66.5,29.91,WNW,292,0.0,3.0,100,0.00,,,-99.99,WeatherLink 5.5,2013-02-28 20:00:00,
2013-02-28 15:10:00,66.5,66.5,29.90,West,270,3.0,6.0,100,0.00,,,-99.99,WeatherLink 5.5,2013-02-28 20:10:00,
2013-02-28 15:15:00,66.6,66.6,29.90,West,270,1.0,5.0,100,0.00,,,-99.99,WeatherLink 5.5,2013-02-28 20:15:00,
2013-02-28 15:25:00,67.4,67.4,29.90,West,270,1.0,5.0,100,0.00,,,-99.99,WeatherLink 5.5,2013-02-28 20:25:00,
2013-02-28 15:35:00,68.0,68.0,29.90,West,270,2.0,7.0,100,0.00,,,-99.99,WeatherLink 5.5,2013-02-28 20:35:00,
2013-02-28 15:40:00,68.4,68.4,29.90,WSW,247,3.0,7.0,100,0.00,,,-99.99,WeatherLink 5.5,2013-02-28 20:40:00,
2013-02-28 15:50:00,68.8,68.8,29.90,WSW,247,1.0,5.0,100,0.00,,,-99.99,WeatherLink 5.5,2013-02-28 20:50:00,
2013-02-28 15:55:00,69.2,69.2,29.90,WSW,247,1.0,5.0,100,0.00,,,-99.99,WeatherLink 5.5,2013-02-28 20:55:00,
2013-02-28 16:05:00,69.6,69.6,29.89,West,270,1.0,7.0,100,0.00,,,-99.99,WeatherLink 5.5,2013-02-28 21:05:00,
2013-02-28 16:15:00,69.3,69.3,29.89,West,270,1.0,5.0,100,0.00,,,-99.99,WeatherLink 5.5,2013-02-28 21:15:00,
2013-02-28 16:25:00,69.0,69.0,29.89,West,270,2.0,5.0,100,0.00,,,-99.99,WeatherLink 5.5,2013-02-28 21:25:00,
2013-02-28 16:35:00,69.1,69.1,29.89,West,270,2.0,6.0,100,0.00,,,-99.99,WeatherLink 5.5,2013-02-28 21:35:00,
2013-02-28 16:40:00,68.8,68.8,29.89,West,270,2.0,6.0,100,0.00,,,-99.99,WeatherLink 5.5,2013-02-28 21:40:00,
2013-02-28 16:50:00,68.3,68.3,29.90,West,270,2.0,5.0,100,0.00,,,-99.99,WeatherLink 5.5,2013-02-28 21:50:00,
2013-02-28 16:55:00,67.8,67.8,29.90,West,270,1.0,4.0,100,0.00,,,-99.99,WeatherLink 5.5,2013-02-28 21:55:00,
2013-02-28 17:05:00,67.6,67.6,29.89,WSW,247,0.0,1.0,100,0.00,,,-99.99,WeatherLink 5.5,2013-02-28 22:05:00,
2013-02-28 17:10:00,67.5,67.5,29.89,WSW,247,1.0,4.0,100,0.00,,,-99.99,WeatherLink 5.5,2013-02-28 22:10:00,
2013-02-28 17:20:00,67.1,67.1,29.90,North,-999,0.0,1.0,100,0.00,,,-99.99,WeatherLink 5.5,2013-02-28 22:20:00,
2013-02-28 17:25:00,67.3,67.3,29.90,WSW,247,0.0,3.0,100,0.00,,,-99.99,WeatherLink 5.5,2013-02-28 22:25:00,
2013-02-28 17:35:00,67.6,67.6,29.91,WSW,247,0.0,3.0,100,0.00,,,-99.99,WeatherLink 5.5,2013-02-28 22:35:00,
2013-02-28 17:45:00,67.3,67.3,29.91,WSW,247,0.0,3.0,100,0.00,,,-99.99,WeatherLink 5.5,2013-02-28 22:45:00,
2013-02-28 17:50:00,67.1,67.1,29.91,WSW,247,1.0,5.0,100,0.00,,,-99.99,WeatherLink 5.5,2013-02-28 22:50:00,
2013-02-28 18:00:00,66.8,66.8,29.91,WSW,247,0.0,3.0,100,0.00,,,-99.99,WeatherLink 5.5,2013-02-28 23:00:00,
2013-02-28 18:05:00,66.4,66.4,29.91,WSW,247,0.0,2.0,100,0.00,,,-99.99,WeatherLink 5.5,2013-02-28 23:05:00,
2013-02-28 18:15:00,65.7,65.7,29.91,WSW,247,0.0,3.0,100,0.00,,,-99.99,WeatherLink 5.5,2013-02-28 23:15:00,
2013-02-28 18:20:00,65.4,65.4,29.91,WSW,247,0.0,3.0,100,0.00,,,-99.99,WeatherLink 5.5,2013-02-28 23:20:00,
2013-02-28 18:30:00,64.8,64.8,29.91,North,-999,0.0,0.0,100,0.00,,,-99.99,WeatherLink 5.5,2013-02-28 23:30:00,
2013-02-28 18:35:00,64.4,64.4,29.91,WSW,247,0.0,1.0,100,0.00,,,-99.99,WeatherLink 5.5,2013-02-28 23:35:00,
2013-02-28 18:45:00,63.9,63.9,29.91,North,-999,0.0,1.0,100,0.00,,,-99.99,WeatherLink 5.5,2013-02-28 23:45:00,
2013-02-28 18:50:00,63.7,63.7,29.91,WSW,247,0.0,2.0,100,0.00,,,-99.99,WeatherLink 5.5,2013-02-28 23:50:00,
2013-02-28 19:00:00,63.7,63.7,29.91,WSW,247,1.0,5.0,100,0.00,,,-99.99,WeatherLink 5.5,2013-03-01 00:00:00,
2013-02-28 19:05:00,63.6,63.6,29.91,WSW,247,0.0,3.0,100,0.00,,,-99.99,WeatherLink 5.5,2013-03-01 00:05:00,
2013-02-28 19:15:00,63.3,63.3,29.91,North,-999,0.0,0.0,100,0.00,,,-99.99,WeatherLink 5.5,2013-03-01 00:15:00,
2013-02-28 19:20:00,62.9,62.9,29.91,WSW,247,0.0,1.0,100,0.00,,,-99.99,WeatherLink 5.5,2013-03-01 00:20:00,
2013-02-28 19:30:00,62.2,62.2,29.91,North,-999,0.0,0.0,100,0.00,,,-99.99,WeatherLink 5.5,2013-03-01 00:30:00,
2013-02-28 19:40:00,61.9,61.9,29.92,WSW,247,1.0,3.0,100,0.00,,,-99.99,WeatherLink 5.5,2013-03-01 00:40:00,
2013-02-28 19:46:00,62.0,62.0,29.92,WSW,247,0.0,3.0,100,0.00,,,-99.99,WeatherLink 5.5,2013-03-01 00:46:00,
2013-02-28 19:55:00,62.0,62.0,29.92,WSW,247,0.0,3.0,100,0.00,,,-99.99,WeatherLink 5.5,2013-03-01 00:55:00,
2013-02-28 20:00:00,61.8,61.8,29.92,WSW,247,0.0,3.0,100,0.00,,,-99.99,WeatherLink 5.5,2013-03-01 01:00:00,
2013-02-28 20:10:00,61.5,61.5,29.92,North,-999,0.0,0.0,100,0.00,,,-99.99,WeatherLink 5.5,2013-03-01 01:10:00,
2013-02-28 20:16:00,61.3,61.3,29.92,North,-999,0.0,0.0,100,0.00,,,-99.99,WeatherLink 5.5,2013-03-01 01:16:00,
2013-02-28 20:25:00,60.8,60.8,29.92,North,-999,0.0,0.0,100,0.00,,,-99.99,WeatherLink 5.5,2013-03-01 01:25:00,
2013-02-28 20:31:00,60.7,60.7,29.92,North,-999,0.0,0.0,100,0.00,,,-99.99,WeatherLink 5.5,2013-03-01 01:31:00,
2013-02-28 20:40:00,60.2,60.2,29.92,North,-999,0.0,0.0,100,0.00,,,-99.99,WeatherLink 5.5,2013-03-01 01:40:00,
2013-02-28 20:46:00,60.0,60.0,29.92,North,-999,0.0,0.0,100,0.00,,,-99.99,WeatherLink 5.5,2013-03-01 01:46:00,
2013-02-28 20:55:00,57.5,57.5,29.93,WSW,247,0.0,3.0,100,0.00,,,-99.99,WeatherLink 5.5,2013-03-01 01:55:00,
2013-02-28 21:05:00,59.7,59.7,29.92,North,-999,0.0,0.0,100,0.00,,,-99.99,WeatherLink 5.5,2013-03-01 02:05:00,
2013-02-28 21:16:00,59.7,59.7,29.93,North,-999,0.0,0.0,100,0.00,,,-99.99,WeatherLink 5.5,2013-03-01 02:16:00,
2013-02-28 21:25:00,59.7,59.7,29.93,WSW,247,0.0,2.0,100,0.00,,,-99.99,WeatherLink 5.5,2013-03-01 02:25:00,
2013-02-28 21:31:00,59.7,59.7,29.93,North,-999,0.0,0.0,100,0.00,,,-99.99,WeatherLink 5.5,2013-03-01 02:31:00,
2013-02-28 21:40:00,59.5,59.5,29.93,WSW,247,0.0,3.0,100,0.00,,,-99.99,WeatherLink 5.5,2013-03-01 02:40:00,
2013-02-28 21:45:00,60.0,60.0,29.94,WSW,247,0.0,3.0,100,0.00,,,-99.99,WeatherLink 5.5,2013-03-01 02:45:00,
2013-02-28 21:55:00,60.4,60.4,29.94,WSW,247,0.0,3.0,100,0.00,,,-99.99,WeatherLink 5.5,2013-03-01 02:55:00,
2013-02-28 22:01:00,60.6,60.6,29.94,WSW,247,0.0,4.0,100,0.00,,,-99.99,WeatherLink 5.5,2013-03-01 03:01:00,
2013-02-28 22:10:00,60.8,60.8,29.94,WSW,247,0.0,3.0,100,0.00,,,-99.99,WeatherLink 5.5,2013-03-01 03:10:00,
2013-02-28 22:20:00,61.4,61.4,29.93,WSW,247,0.0,3.0,100,0.00,,,-99.99,WeatherLink 5.5,2013-03-01 03:20:00,
2013-02-28 22:30:00,61.9,61.9,29.92,WSW,247,0.0,3.0,100,0.00,,,-99.99,WeatherLink 5.5,2013-03-01 03:30:00,
2013-02-28 22:35:00,62.0,62.0,29.93,WSW,247,1.0,3.0,100,0.00,,,-99.99,WeatherLink 5.5,2013-03-01 03:35:00,
2013-02-28 22:45:00,62.3,62.3,29.93,WSW,247,0.0,3.0,100,0.00,,,-99.99,WeatherLink 5.5,2013-03-01 03:45:00,
2013-02-28 22:50:00,62.2,62.2,29.93,WSW,247,0.0,2.0,100,0.00,,,-99.99,WeatherLink 5.5,2013-03-01 03:50:00,
2013-02-28 23:01:00,62.2,62.2,29.92,North,-999,0.0,0.0,100,0.00,,,-99.99,WeatherLink 5.5,2013-03-01 04:01:00,
2013-02-28 23:10:00,62.0,62.0,29.92,WSW,247,0.0,2.0,100,0.00,,,-99.99,WeatherLink 5.5,2013-03-01 04:10:00,
2013-02-28 23:15:00,62.0,62.0,29.92,WSW,247,0.0,1.0,100,0.00,,,-99.99,WeatherLink 5.5,2013-03-01 04:15:00,
2013-02-28 23:26:00,62.1,62.1,29.92,WSW,247,0.0,2.0,100,0.00,,,-99.99,WeatherLink 5.5,2013-03-01 04:26:00,
2013-02-28 23:35:00,62.0,62.0,29.92,North,-999,0.0,0.0,100,0.00,,,-99.99,WeatherLink 5.5,2013-03-01 04:35:00,
2013-02-28 23:41:00,62.0,62.0,29.92,North,-999,0.0,1.0,100,0.00,,,-99.99,WeatherLink 5.5,2013-03-01 04:41:00,
2013-02-28 23:50:00,61.9,61.9,29.92,WSW,247,0.0,1.0,100,0.00,,,-99.99,WeatherLink 5.5,2013-03-01 04:50:00,